createdAt,value
2018-03-17T00:00:59.007Z,-0.20
2018-03-17T00:03:26.624Z,-0.20
2018-03-17T00:05:54.462Z,-0.20
2018-03-17T00:08:22.109Z,-0.20
2018-03-17T00:10:49.773Z,-0.20
2018-03-17T00:13:17.449Z,-0.20
2018-03-17T00:15:45.098Z,-0.30
2018-03-17T00:18:12.728Z,-0.20
2018-03-17T00:20:40.404Z,-0.30
2018-03-17T00:23:08.033Z,-0.30
2018-03-17T00:25:35.684Z,-0.30
2018-03-17T00:28:03.337Z,-0.30
2018-03-17T00:30:31.034Z,-0.40
2018-03-17T00:32:58.665Z,-0.40
2018-03-17T00:35:26.366Z,-0.40
2018-03-17T00:37:54.012Z,-0.40
2018-03-17T00:40:21.638Z,-0.40
2018-03-17T00:42:50.051Z,-0.40
2018-03-17T00:45:17.693Z,-0.50
2018-03-17T00:47:46.097Z,-0.40
2018-03-17T00:50:13.727Z,-0.40
2018-03-17T00:52:42.329Z,-0.40
2018-03-17T00:55:10.724Z,-0.50
2018-03-17T00:57:39.121Z,-0.40
2018-03-17T01:00:06.760Z,-0.50
2018-03-17T01:02:35.159Z,-0.50
2018-03-17T01:05:03.549Z,-0.50
2018-03-17T01:07:31.184Z,-0.50
2018-03-17T01:09:58.805Z,-0.50
2018-03-17T01:12:26.444Z,-0.50
2018-03-17T01:14:54.093Z,-0.60
2018-03-17T01:17:22.482Z,-0.50
2018-03-17T01:19:50.873Z,-0.60
2018-03-17T01:22:18.505Z,-0.60
2018-03-17T01:24:46.137Z,-0.60
2018-03-17T01:27:13.771Z,-0.60
2018-03-17T01:29:42.168Z,-0.60
2018-03-17T01:32:10.043Z,-0.60
2018-03-17T01:34:37.683Z,-0.60
2018-03-17T01:37:06.084Z,-0.60
2018-03-17T01:39:33.716Z,-0.60
2018-03-17T01:42:01.358Z,-0.60
2018-03-17T01:44:29.784Z,-0.60
2018-03-17T01:46:58.184Z,-0.70
2018-03-17T01:49:25.825Z,-0.70
2018-03-17T01:51:54.230Z,-0.60
2018-03-17T01:54:30.617Z,-0.60
2018-03-17T01:56:58.245Z,-0.70
2018-03-17T01:59:26.643Z,-0.70
2018-03-17T02:01:54.273Z,-0.70
2018-03-17T02:04:21.905Z,-0.70
2018-03-17T02:06:49.593Z,-0.70
2018-03-17T02:09:17.229Z,-0.70
2018-03-17T02:11:44.856Z,-0.80
2018-03-17T02:14:12.484Z,-0.70
2018-03-17T02:16:40.371Z,-0.70
2018-03-17T02:19:08.000Z,-0.80
2018-03-17T02:21:35.652Z,-0.80
2018-03-17T02:24:04.058Z,-0.80
2018-03-17T02:26:31.660Z,-0.80
2018-03-17T02:28:59.292Z,-0.70
2018-03-17T02:31:26.945Z,-0.80
2018-03-17T02:33:54.597Z,-0.80
2018-03-17T02:36:22.989Z,-0.80
2018-03-17T02:38:50.657Z,-0.80
2018-03-17T02:41:18.285Z,-0.80
2018-03-17T02:43:45.928Z,-0.80
2018-03-17T02:46:13.561Z,-0.80
2018-03-17T02:48:41.221Z,-0.90
2018-03-17T02:51:08.846Z,-0.90
2018-03-17T02:53:36.503Z,-0.90
2018-03-17T02:56:04.126Z,-0.90
2018-03-17T02:58:31.752Z,-0.90
2018-03-17T03:00:59.377Z,-0.90
2018-03-17T03:03:27.077Z,-0.90
2018-03-17T03:05:54.720Z,-0.90
2018-03-17T03:08:22.358Z,-0.90
2018-03-17T03:10:49.992Z,-0.90
2018-03-17T03:13:18.396Z,-1.00
2018-03-17T03:15:46.028Z,-1.00
2018-03-17T03:18:13.656Z,-1.00
2018-03-17T03:20:41.289Z,-1.00
2018-03-17T03:23:08.934Z,-1.00
2018-03-17T03:25:36.583Z,-1.00
2018-03-17T03:28:04.211Z,-1.00
2018-03-17T03:30:31.837Z,-1.00
2018-03-17T03:33:00.240Z,-1.10
2018-03-17T03:35:27.903Z,-1.10
2018-03-17T03:37:56.296Z,-1.10
2018-03-17T03:40:25.117Z,-1.10
2018-03-17T03:42:52.804Z,-1.10
2018-03-17T03:45:20.436Z,-1.10
2018-03-17T03:47:48.088Z,-1.10
2018-03-17T03:50:15.708Z,-1.10
2018-03-17T03:52:43.358Z,-1.20
2018-03-17T03:55:10.986Z,-1.20
2018-03-17T03:57:38.609Z,-1.20
2018-03-17T04:00:06.245Z,-1.20
2018-03-17T04:02:33.884Z,-1.20
2018-03-17T04:05:01.531Z,-1.30
2018-03-17T04:07:29.148Z,-1.30
2018-03-17T04:09:56.784Z,-1.30
2018-03-17T04:12:24.431Z,-1.20
2018-03-17T04:14:52.824Z,-1.30
2018-03-17T04:17:20.468Z,-1.30
2018-03-17T04:19:48.121Z,-1.30
2018-03-17T04:22:15.745Z,-1.30
2018-03-17T04:24:43.385Z,-1.30
2018-03-17T04:27:11.780Z,-1.30
2018-03-17T04:29:39.406Z,-1.30
2018-03-17T04:32:07.043Z,-1.30
2018-03-17T04:34:34.676Z,-1.30
2018-03-17T04:37:02.303Z,-1.40
2018-03-17T04:39:30.718Z,-1.40
2018-03-17T04:41:58.348Z,-1.40
2018-03-17T04:44:25.984Z,-1.40
2018-03-17T04:46:53.608Z,-1.40
2018-03-17T04:49:22.004Z,-1.60
2018-03-17T04:51:49.638Z,-1.50
2018-03-17T04:54:17.261Z,-1.60
2018-03-17T04:56:44.892Z,-1.60
2018-03-17T04:59:13.289Z,-1.60
2018-03-17T05:01:40.921Z,-1.60
2018-03-17T05:04:08.549Z,-1.60
2018-03-17T05:06:36.196Z,-1.70
2018-03-17T05:09:03.828Z,-1.70
2018-03-17T05:11:31.463Z,-1.70
2018-03-17T05:13:59.081Z,-1.70
2018-03-17T05:16:26.709Z,-1.70
2018-03-17T05:18:54.348Z,-1.70
2018-03-17T05:21:21.973Z,-1.80
2018-03-17T05:23:50.368Z,-1.90
2018-03-17T05:26:18.016Z,-1.90
2018-03-17T05:28:46.406Z,-1.90
2018-03-17T05:31:14.037Z,-1.90
2018-03-17T05:33:41.668Z,-1.90
2018-03-17T05:36:09.296Z,-2.00
2018-03-17T05:38:37.217Z,-1.90
2018-03-17T05:41:04.852Z,-2.00
2018-03-17T05:43:32.537Z,-2.00
2018-03-17T05:46:00.144Z,-2.00
2018-03-17T05:48:27.780Z,-2.10
2018-03-17T05:50:55.411Z,-2.10
2018-03-17T05:53:23.823Z,-2.00
2018-03-17T05:55:51.485Z,-2.10
2018-03-17T05:58:19.112Z,-2.10
2018-03-17T06:00:46.750Z,-2.10
2018-03-17T06:03:14.378Z,-2.10
2018-03-17T06:05:42.005Z,-2.00
2018-03-17T06:08:09.649Z,-2.00
2018-03-17T06:10:37.280Z,-2.10
2018-03-17T06:13:04.910Z,-2.10
2018-03-17T06:15:33.312Z,-2.20
2018-03-17T06:18:00.953Z,-2.20
2018-03-17T06:20:28.569Z,-2.20
2018-03-17T06:22:56.217Z,-2.20
2018-03-17T06:25:23.853Z,-2.20
2018-03-17T06:27:52.249Z,-2.20
2018-03-17T06:30:20.649Z,-2.20
2018-03-17T06:32:48.289Z,-2.20
2018-03-17T06:35:16.692Z,-2.20
2018-03-17T06:37:44.329Z,-2.30
2018-03-17T06:40:11.979Z,-2.30
2018-03-17T06:42:39.605Z,-2.30
2018-03-17T06:45:07.233Z,-2.30
2018-03-17T06:47:35.630Z,-2.40
2018-03-17T06:50:04.028Z,-2.30
2018-03-17T06:52:31.665Z,-2.30
2018-03-17T06:55:00.061Z,-2.40
2018-03-17T06:57:28.457Z,-2.40
2018-03-17T06:59:56.085Z,-2.40
2018-03-17T07:02:23.999Z,-2.40
2018-03-17T07:04:51.603Z,-2.30
2018-03-17T07:07:19.243Z,-2.40
2018-03-17T07:09:46.916Z,-2.40
2018-03-17T07:12:14.540Z,-2.40
2018-03-17T07:14:42.986Z,-2.50
2018-03-17T07:17:10.633Z,-2.50
2018-03-17T07:19:38.292Z,-2.40
2018-03-17T07:22:06.980Z,-2.40
2018-03-17T07:24:34.608Z,-2.30
2018-03-17T07:27:02.341Z,-2.40
2018-03-17T07:29:30.229Z,-2.40
2018-03-17T07:31:57.860Z,-2.40
2018-03-17T07:34:25.518Z,-2.40
2018-03-17T07:36:53.384Z,-2.50
2018-03-17T07:39:21.018Z,-2.50
2018-03-17T07:41:48.649Z,-2.50
2018-03-17T07:44:16.288Z,-2.60
2018-03-17T07:46:43.909Z,-2.50
2018-03-17T07:49:11.584Z,-2.50
2018-03-17T07:51:39.213Z,-2.60
2018-03-17T07:54:10.025Z,-2.60
2018-03-17T07:56:38.408Z,-2.50
2018-03-17T07:59:06.036Z,-2.50
2018-03-17T08:01:33.680Z,-2.60
2018-03-17T08:04:01.305Z,-2.50
2018-03-17T08:06:28.948Z,-2.60
2018-03-17T08:08:56.591Z,-2.60
2018-03-17T08:11:24.216Z,-2.60
2018-03-17T08:13:51.848Z,-2.60
2018-03-17T08:16:20.245Z,-2.60
2018-03-17T08:18:47.881Z,-2.60
2018-03-17T08:21:15.513Z,-2.60
2018-03-17T08:23:43.160Z,-2.60
2018-03-17T08:26:10.780Z,-2.70
2018-03-17T08:28:38.429Z,-2.70
2018-03-17T08:31:06.061Z,-2.60
2018-03-17T08:33:33.682Z,-2.70
2018-03-17T08:36:02.068Z,-2.70
2018-03-17T08:38:30.477Z,-2.70
2018-03-17T08:40:58.125Z,-2.80
2018-03-17T08:43:26.537Z,-2.80
2018-03-17T08:45:54.196Z,-2.80
2018-03-17T08:48:21.796Z,-2.80
2018-03-17T08:50:49.436Z,-2.70
2018-03-17T08:53:17.075Z,-2.70
2018-03-17T08:55:44.739Z,-2.60
2018-03-17T08:58:12.332Z,-2.70
2018-03-17T09:00:39.964Z,-2.60
2018-03-17T09:03:07.596Z,-2.70
2018-03-17T09:05:35.229Z,-2.70
2018-03-17T09:08:02.853Z,-2.70
2018-03-17T09:10:30.501Z,-2.80
2018-03-17T09:12:58.165Z,-2.80
2018-03-17T09:15:25.805Z,-2.90
2018-03-17T09:17:53.440Z,-2.80
2018-03-17T09:20:21.865Z,-2.70
2018-03-17T09:22:49.496Z,-2.80
2018-03-17T09:25:17.136Z,-2.80
2018-03-17T09:27:44.756Z,-2.80
2018-03-17T09:30:12.385Z,-2.70
2018-03-17T09:32:40.014Z,-2.80
2018-03-17T09:35:07.664Z,-2.80
2018-03-17T09:37:35.296Z,-2.80
2018-03-17T09:40:02.917Z,-2.80
2018-03-17T09:42:30.540Z,-2.80
2018-03-17T09:44:58.199Z,-2.70
2018-03-17T09:47:26.573Z,-2.50
2018-03-17T09:49:54.217Z,-2.50
2018-03-17T09:52:22.663Z,-2.60
2018-03-17T09:54:50.281Z,-2.60
2018-03-17T09:57:17.913Z,-2.60
2018-03-17T09:59:45.537Z,-2.50
2018-03-17T10:02:13.388Z,-2.60
2018-03-17T10:04:41.018Z,-2.50
2018-03-17T10:07:08.656Z,-2.50
2018-03-17T10:09:36.279Z,-2.40
2018-03-17T10:12:04.656Z,-2.50
2018-03-17T10:14:33.074Z,-2.40
2018-03-17T10:17:00.680Z,-2.40
2018-03-17T10:19:28.313Z,-2.40
2018-03-17T10:21:55.958Z,-2.60
2018-03-17T10:24:24.529Z,-2.40
2018-03-17T10:26:52.930Z,-2.50
2018-03-17T10:29:20.572Z,-2.50
2018-03-17T10:31:48.193Z,-2.50
2018-03-17T10:34:15.827Z,-2.40
2018-03-17T10:36:43.463Z,-2.40
2018-03-17T10:39:11.084Z,-2.50
2018-03-17T10:41:38.717Z,-2.50
2018-03-17T10:44:07.106Z,-2.40
2018-03-17T10:46:35.492Z,-2.50
2018-03-17T10:49:03.140Z,-2.50
2018-03-17T10:51:31.534Z,-2.50
2018-03-17T10:53:59.934Z,-2.50
2018-03-17T10:56:27.565Z,-2.50
2018-03-17T10:58:55.180Z,-2.40
2018-03-17T11:01:22.814Z,-2.30
2018-03-17T11:03:50.450Z,-2.30
2018-03-17T11:06:18.116Z,-2.40
2018-03-17T11:08:45.740Z,-2.40
2018-03-17T11:11:13.423Z,-2.40
2018-03-17T11:13:41.768Z,-2.30
2018-03-17T11:16:09.410Z,-2.30
2018-03-17T11:18:37.033Z,-2.30
2018-03-17T11:21:04.661Z,-2.30
2018-03-17T11:23:32.286Z,-2.30
2018-03-17T11:25:59.908Z,-2.30
2018-03-17T11:28:27.577Z,-2.40
2018-03-17T11:30:55.171Z,-2.30
2018-03-17T11:33:23.055Z,-2.40
2018-03-17T11:35:50.706Z,-2.30
2018-03-17T11:38:18.379Z,-2.40
2018-03-17T11:40:46.058Z,-2.30
2018-03-17T11:43:13.636Z,-2.30
2018-03-17T11:45:41.268Z,-2.40
2018-03-17T11:48:08.903Z,-2.40
2018-03-17T11:50:36.529Z,-2.40
2018-03-17T11:53:04.157Z,-2.30
2018-03-17T11:55:31.777Z,-2.30
2018-03-17T11:58:00.185Z,-2.30
2018-03-17T12:00:27.818Z,-2.30
2018-03-17T12:02:55.499Z,-2.30
2018-03-17T12:05:23.079Z,-2.30
2018-03-17T12:07:50.752Z,-2.30
2018-03-17T12:10:18.406Z,-2.40
2018-03-17T12:12:46.044Z,-2.40
2018-03-17T12:15:14.784Z,-2.40
2018-03-17T12:17:42.410Z,-2.50
2018-03-17T12:20:10.033Z,-2.50
2018-03-17T12:22:37.657Z,-2.30
2018-03-17T12:25:06.050Z,-2.30
2018-03-17T12:27:33.683Z,-2.30
2018-03-17T12:30:01.308Z,-2.30
2018-03-17T12:32:28.928Z,-2.20
2018-03-17T12:34:57.321Z,-2.30
2018-03-17T12:37:24.978Z,-2.30
2018-03-17T12:39:53.380Z,-2.20
2018-03-17T12:42:21.012Z,-2.20
2018-03-17T12:44:48.641Z,-2.20
2018-03-17T12:47:16.281Z,-2.20
2018-03-17T12:49:44.677Z,-2.30
2018-03-17T12:52:12.426Z,-2.30
2018-03-17T12:54:40.813Z,-2.20
2018-03-17T12:57:08.455Z,-2.20
2018-03-17T12:59:36.340Z,-2.20
2018-03-17T13:02:04.735Z,-2.20
2018-03-17T13:04:33.132Z,-2.30
2018-03-17T13:07:00.772Z,-2.30
2018-03-17T13:09:29.169Z,-2.30
2018-03-17T13:11:56.802Z,-2.40
2018-03-17T13:14:24.430Z,-2.40
2018-03-17T13:16:52.070Z,-2.40
2018-03-17T13:19:29.596Z,-2.30
2018-03-17T13:21:57.225Z,-2.30
2018-03-17T13:24:24.867Z,-2.40
2018-03-17T13:27:04.417Z,-2.30
2018-03-17T13:29:32.823Z,-2.40
2018-03-17T13:32:00.453Z,-2.40
2018-03-17T13:34:28.081Z,-2.40
2018-03-17T13:37:07.702Z,-2.40
2018-03-17T13:39:35.328Z,-2.40
2018-03-17T13:42:03.756Z,-2.40
2018-03-17T13:44:31.387Z,-2.40
2018-03-17T13:46:59.789Z,-2.30
2018-03-17T13:49:27.417Z,-2.30
2018-03-17T13:51:55.108Z,-2.30
2018-03-17T13:54:23.512Z,-2.30
2018-03-17T13:56:51.151Z,-2.30
2018-03-17T13:59:19.552Z,-2.30
2018-03-17T14:01:47.188Z,-2.30
2018-03-17T14:04:14.817Z,-2.30
2018-03-17T14:06:42.457Z,-2.30
2018-03-17T14:09:10.840Z,-2.30
2018-03-17T14:11:38.503Z,-2.30
2018-03-17T14:14:06.889Z,-2.30
2018-03-17T14:16:34.513Z,-2.30
2018-03-17T14:19:02.152Z,-2.30
2018-03-17T14:21:29.777Z,-2.20
2018-03-17T14:24:00.517Z,-2.20
2018-03-17T14:26:28.211Z,-2.30
2018-03-17T14:28:55.828Z,-2.40
2018-03-17T14:31:24.365Z,-2.40
2018-03-17T14:33:51.976Z,-2.40
2018-03-17T14:36:19.618Z,-2.30
2018-03-17T14:38:47.248Z,-2.30
2018-03-17T14:41:14.888Z,-2.30
2018-03-17T14:43:43.317Z,-2.30
2018-03-17T14:46:10.953Z,-2.30
2018-03-17T14:48:38.599Z,-2.30
2018-03-17T14:51:06.213Z,-2.30
2018-03-17T14:53:33.853Z,-2.30
2018-03-17T14:56:01.496Z,-2.40
2018-03-17T14:58:29.134Z,-2.30
2018-03-17T15:00:56.764Z,-2.40
2018-03-17T15:03:24.414Z,-2.30
2018-03-17T15:05:52.377Z,-2.30
2018-03-17T15:08:20.008Z,-2.40
2018-03-17T15:10:47.684Z,-2.40
2018-03-17T15:13:15.274Z,-2.50
2018-03-17T15:15:43.685Z,-2.40
2018-03-17T15:18:11.346Z,-2.50
2018-03-17T15:20:39.013Z,-2.40
2018-03-17T15:23:06.633Z,-2.40
2018-03-17T15:25:34.265Z,-2.40
2018-03-17T15:28:01.908Z,-2.40
2018-03-17T15:30:29.545Z,-2.40
2018-03-17T15:32:57.164Z,-2.50
2018-03-17T15:35:24.784Z,-2.50
2018-03-17T15:37:53.195Z,-2.30
2018-03-17T15:40:20.846Z,-2.30
2018-03-17T15:42:48.505Z,-2.30
2018-03-17T15:45:16.142Z,-2.40
2018-03-17T15:47:43.756Z,-2.30
2018-03-17T15:50:11.393Z,-2.30
2018-03-17T15:52:39.780Z,-2.40
2018-03-17T15:55:08.184Z,-2.40
2018-03-17T15:57:35.825Z,-2.50
2018-03-17T16:00:03.543Z,-2.40
2018-03-17T16:02:31.117Z,-2.40
2018-03-17T16:04:58.760Z,-2.50
2018-03-17T16:07:26.378Z,-2.50
2018-03-17T16:09:54.018Z,-2.40
2018-03-17T16:12:21.660Z,-2.40
2018-03-17T16:14:49.300Z,-2.40
2018-03-17T16:17:17.735Z,-2.50
2018-03-17T16:19:45.445Z,-2.50
2018-03-17T16:22:13.861Z,-2.40
2018-03-17T16:24:44.416Z,-2.40
2018-03-17T16:27:12.084Z,-2.40
2018-03-17T16:29:39.717Z,-2.50
2018-03-17T16:32:07.397Z,-2.40
2018-03-17T16:34:35.045Z,-2.50
2018-03-17T16:37:02.684Z,-2.40
2018-03-17T16:39:30.321Z,-2.40
2018-03-17T16:41:57.945Z,-2.40
2018-03-17T16:44:25.612Z,-2.40
2018-03-17T16:46:53.253Z,-2.50
2018-03-17T16:49:20.880Z,-2.50
2018-03-17T16:51:48.500Z,-2.40
2018-03-17T16:54:16.902Z,-2.40
2018-03-17T16:56:44.572Z,-2.50
2018-03-17T16:59:12.228Z,-2.50
2018-03-17T17:01:39.863Z,-2.50
2018-03-17T17:04:07.498Z,-2.50
2018-03-17T17:06:35.133Z,-2.60
2018-03-17T17:09:02.789Z,-2.60
2018-03-17T17:11:31.197Z,-2.50
2018-03-17T17:13:58.833Z,-2.50
2018-03-17T17:16:27.237Z,-2.50
2018-03-17T17:18:54.873Z,-2.50
2018-03-17T17:21:23.585Z,-2.50
2018-03-17T17:23:51.221Z,-2.50
2018-03-17T17:26:18.872Z,-2.60
2018-03-17T17:28:46.493Z,-2.50
2018-03-17T17:31:14.128Z,-2.50
2018-03-17T17:33:42.513Z,-2.50
2018-03-17T17:36:10.936Z,-2.50
2018-03-17T17:38:38.568Z,-2.50
2018-03-17T17:41:06.994Z,-2.50
2018-03-17T17:43:34.603Z,-2.50
2018-03-17T17:46:02.314Z,-2.50
2018-03-17T17:48:30.654Z,-2.50
2018-03-17T17:50:58.313Z,-2.50
2018-03-17T17:53:25.953Z,-2.50
2018-03-17T17:55:53.584Z,-2.50
2018-03-17T17:58:21.224Z,-2.50
2018-03-17T18:00:49.646Z,-2.50
2018-03-17T18:03:17.268Z,-2.50
2018-03-17T18:05:44.892Z,-2.50
2018-03-17T18:08:12.533Z,-2.50
2018-03-17T18:10:40.192Z,-2.50
2018-03-17T18:13:07.843Z,-2.50
2018-03-17T18:15:36.234Z,-2.50
2018-03-17T18:18:04.626Z,-2.50
2018-03-17T18:20:32.261Z,-2.50
2018-03-17T18:22:59.897Z,-2.40
2018-03-17T18:25:27.532Z,-2.50
2018-03-17T18:27:55.165Z,-2.40
2018-03-17T18:30:22.828Z,-2.40
2018-03-17T18:32:50.441Z,-2.50
2018-03-17T18:35:18.093Z,-2.50
2018-03-17T18:37:45.756Z,-2.40
2018-03-17T18:40:13.412Z,-2.40
2018-03-17T18:42:41.260Z,-2.40
2018-03-17T18:45:09.785Z,-2.50
2018-03-17T18:47:37.421Z,-2.50
2018-03-17T18:50:05.827Z,-2.40
2018-03-17T18:52:34.237Z,-2.40
2018-03-17T18:55:01.898Z,-2.40
2018-03-17T18:57:29.528Z,-2.40
2018-03-17T18:59:57.158Z,-2.40
2018-03-17T19:02:24.833Z,-2.30
2018-03-17T19:04:52.460Z,-2.30
2018-03-17T19:07:20.121Z,-2.40
2018-03-17T19:09:47.790Z,-2.40
2018-03-17T19:12:16.161Z,-2.40
2018-03-17T19:14:43.825Z,-2.40
2018-03-17T19:17:11.461Z,-2.40
2018-03-17T19:19:39.108Z,-2.40
2018-03-17T19:22:06.733Z,-2.40
2018-03-17T19:24:34.454Z,-2.30
2018-03-17T19:27:02.098Z,-2.30
2018-03-17T19:29:29.797Z,-2.40
2018-03-17T19:31:57.397Z,-2.30
2018-03-17T19:34:25.040Z,-2.30
2018-03-17T19:36:53.512Z,-2.40
2018-03-17T19:39:21.105Z,-2.40
2018-03-17T19:41:48.764Z,-2.30
2018-03-17T19:44:16.450Z,-2.30
2018-03-17T19:46:44.027Z,-2.30
2018-03-17T19:49:11.970Z,-2.30
2018-03-17T19:51:39.649Z,-2.30
2018-03-17T19:54:07.294Z,-2.20
2018-03-17T19:56:34.937Z,-2.20
2018-03-17T19:59:02.613Z,-2.20
2018-03-17T20:01:30.696Z,-2.30
2018-03-17T20:03:58.262Z,-2.30
2018-03-17T20:06:25.913Z,-2.30
2018-03-17T20:08:53.552Z,-2.30
2018-03-17T20:11:21.188Z,-2.30
2018-03-17T20:13:48.824Z,-2.20
2018-03-17T20:16:16.448Z,-2.30
2018-03-17T20:18:44.096Z,-2.30
2018-03-17T20:21:11.734Z,-2.20
2018-03-17T20:23:52.777Z,-2.20
2018-03-17T20:26:20.417Z,-2.30
2018-03-17T20:28:48.882Z,-2.20
2018-03-17T20:31:16.897Z,-2.30
2018-03-17T20:33:44.530Z,-2.20
2018-03-17T20:36:12.179Z,-2.20
2018-03-17T20:38:40.564Z,-2.10
2018-03-17T20:41:08.222Z,-2.20
2018-03-17T20:43:36.613Z,-2.20
2018-03-17T20:46:04.257Z,-2.20
2018-03-17T20:48:31.884Z,-2.10
2018-03-17T20:50:59.522Z,-2.10
2018-03-17T20:53:27.149Z,-2.10
2018-03-17T20:55:54.780Z,-2.10
2018-03-17T20:58:22.400Z,-2.10
2018-03-17T21:00:50.256Z,-2.10
2018-03-17T21:03:17.898Z,-2.10
2018-03-17T21:05:45.736Z,-2.10
2018-03-17T21:08:13.554Z,-2.10
2018-03-17T21:10:41.184Z,-2.10
2018-03-17T21:13:08.817Z,-2.10
2018-03-17T21:15:36.480Z,-2.10
2018-03-17T21:18:04.880Z,-2.00
2018-03-17T21:20:32.549Z,-2.00
2018-03-17T21:23:00.192Z,-2.00
2018-03-17T21:25:27.829Z,-2.00
2018-03-17T21:27:55.489Z,-2.00
2018-03-17T21:30:23.089Z,-1.90
2018-03-17T21:32:51.482Z,-1.90
2018-03-17T21:35:19.132Z,-2.00
2018-03-17T21:37:46.749Z,-2.00
2018-03-17T21:40:14.378Z,-1.90
2018-03-17T21:42:42.801Z,-1.90
2018-03-17T21:45:10.412Z,-1.90
2018-03-17T21:47:38.849Z,-1.90
2018-03-17T21:50:06.489Z,-1.90
2018-03-17T21:52:34.125Z,-1.90
2018-03-17T21:55:01.763Z,-1.90
2018-03-17T21:57:29.392Z,-1.90
2018-03-17T21:59:59.124Z,-1.80
2018-03-17T22:02:26.780Z,-1.90
2018-03-17T22:04:54.435Z,-1.90
2018-03-17T22:07:22.120Z,-1.90
2018-03-17T22:09:49.741Z,-1.80
2018-03-17T22:12:18.206Z,-1.90
2018-03-17T22:14:45.834Z,-1.90
2018-03-17T22:17:13.756Z,-1.90
2018-03-17T22:19:41.401Z,-1.80
2018-03-17T22:22:09.037Z,-1.90
2018-03-17T22:24:36.783Z,-1.90
2018-03-17T22:27:05.175Z,-1.90
2018-03-17T22:29:34.749Z,-1.90
2018-03-17T22:32:02.384Z,-1.90
2018-03-17T22:34:30.107Z,-1.80
2018-03-17T22:36:58.633Z,-1.90
2018-03-17T22:39:26.353Z,-1.90
2018-03-17T22:41:54.729Z,-1.90
2018-03-17T22:44:23.153Z,-1.90
2018-03-17T22:46:50.809Z,-1.90
2018-03-17T22:49:18.481Z,-1.90
2018-03-17T22:51:46.884Z,-1.90
2018-03-17T22:54:14.523Z,-1.90
2018-03-17T22:56:42.127Z,-1.90
2018-03-17T22:59:09.757Z,-1.90
2018-03-17T23:01:37.410Z,-1.90
2018-03-17T23:04:05.815Z,-1.90
2018-03-17T23:06:33.432Z,-1.90
2018-03-17T23:09:01.069Z,-1.90
2018-03-17T23:11:28.697Z,-1.90
2018-03-17T23:13:56.340Z,-1.90
2018-03-17T23:16:24.820Z,-1.90
2018-03-17T23:18:52.458Z,-1.90
2018-03-17T23:21:20.109Z,-1.90
2018-03-17T23:23:47.816Z,-1.90
2018-03-17T23:26:15.424Z,-1.90
2018-03-17T23:28:43.049Z,-1.90
2018-03-17T23:31:10.698Z,-1.90
2018-03-17T23:33:38.348Z,-1.90
2018-03-17T23:36:06.756Z,-1.90
2018-03-17T23:38:34.428Z,-1.90
2018-03-17T23:41:02.068Z,-2.00
2018-03-17T23:43:29.697Z,-2.00
2018-03-17T23:45:57.337Z,-1.90
2018-03-17T23:48:24.969Z,-2.00
2018-03-17T23:50:52.600Z,-2.00
2018-03-17T23:53:20.258Z,-2.00
2018-03-17T23:55:48.653Z,-2.00
2018-03-17T23:58:16.293Z,-2.00
